sensor_id;sensor_type;location;lat;lon;timestamp;pressure;altitude;pressure_sealevel;temperature;humidity
34034;BME280;63481;52.588;22.472;2023-07-29T00:00:08;99327.46;;;17.21;100.00
34034;BME280;63481;52.588;22.472;2023-07-29T00:01:07;99325.90;;;17.25;100.00
34034;BME280;63481;52.588;22.472;2023-07-29T00:01:40;99327.73;;;17.24;100.00
34034;BME280;63481;52.588;22.472;2023-07-29T00:02:12;99324.77;;;17.25;100.00
34034;BME280;63481;52.588;22.472;2023-07-29T00:02:44;99329.13;;;17.28;100.00
34034;BME280;63481;52.588;22.472;2023-07-29T00:03:16;99330.90;;;17.27;100.00
34034;BME280;63481;52.588;22.472;2023-07-29T00:03:48;99331.39;;;17.27;100.00
34034;BME280;63481;52.588;22.472;2023-07-29T00:04:20;99335.60;;;17.25;100.00
34034;BME280;63481;52.588;22.472;2023-07-29T00:04:52;99335.12;;;17.26;100.00
34034;BME280;63481;52.588;22.472;2023-07-29T00:05:23;99336.72;;;17.25;100.00
34034;BME280;63481;52.588;22.472;2023-07-29T00:05:55;99338.30;;;17.30;100.00
34034;BME280;63481;52.588;22.472;2023-07-29T00:06:27;99337.38;;;17.31;100.00
34034;BME280;63481;52.588;22.472;2023-07-29T00:06:59;99336.02;;;17.32;100.00
34034;BME280;63481;52.588;22.472;2023-07-29T00:07:31;99336.56;;;17.29;100.00
34034;BME280;63481;52.588;22.472;2023-07-29T00:08:03;99339.27;;;17.30;100.00
34034;BME280;63481;52.588;22.472;2023-07-29T00:08:35;99338.30;;;17.28;100.00
34034;BME280;63481;52.588;22.472;2023-07-29T00:09:06;99338.35;;;17.23;100.00
34034;BME280;63481;52.588;22.472;2023-07-29T00:09:38;99335.88;;;17.22;100.00
34034;BME280;63481;52.588;22.472;2023-07-29T00:10:10;99337.91;;;17.23;100.00
34034;BME280;63481;52.588;22.472;2023-07-29T00:10:42;99342.13;;;17.19;100.00
34034;BME280;63481;52.588;22.472;2023-07-29T00:11:14;99341.16;;;17.23;100.00
34034;BME280;63481;52.588;22.472;2023-07-29T00:11:45;99344.27;;;17.24;100.00
34034;BME280;63481;52.588;22.472;2023-07-29T00:12:17;99346.60;;;17.26;100.00
34034;BME280;63481;52.588;22.472;2023-07-29T00:12:49;99347.08;;;17.23;100.00
34034;BME280;63481;52.588;22.472;2023-07-29T00:13:21;99349.84;;;17.24;100.00
34034;BME280;63481;52.588;22.472;2023-07-29T00:13:53;99348.59;;;17.26;100.00
34034;BME280;63481;52.588;22.472;2023-07-29T00:14:25;99350.80;;;17.31;100.00
34034;BME280;63481;52.588;22.472;2023-07-29T00:14:56;99354.35;;;17.33;100.00
34034;BME280;63481;52.588;22.472;2023-07-29T00:15:28;99353.52;;;17.34;100.00
34034;BME280;63481;52.588;22.472;2023-07-29T00:16:00;99353.64;;;17.34;100.00
34034;BME280;63481;52.588;22.472;2023-07-29T00:16:32;99354.83;;;17.29;100.00
34034;BME280;63481;52.588;22.472;2023-07-29T00:17:04;99354.31;;;17.31;100.00
34034;BME280;63481;52.588;22.472;2023-07-29T00:17:37;99354.79;;;17.32;100.00
34034;BME280;63481;52.588;22.472;2023-07-29T00:18:09;99353.70;;;17.30;100.00
34034;BME280;63481;52.588;22.472;2023-07-29T00:18:40;99354.41;;;17.28;100.00
34034;BME280;63481;52.588;22.472;2023-07-29T00:19:12;99354.19;;;17.28;100.00
34034;BME280;63481;52.588;22.472;2023-07-29T00:19:44;99356.25;;;17.27;100.00
34034;BME280;63481;52.588;22.472;2023-07-29T00:20:17;99358.18;;;17.23;100.00
34034;BME280;63481;52.588;22.472;2023-07-29T00:20:49;99357.92;;;17.25;100.00
34034;BME280;63481;52.588;22.472;2023-07-29T00:21:21;99357.98;;;17.24;100.00
34034;BME280;63481;52.588;22.472;2023-07-29T00:21:53;99361.80;;;17.26;100.00
34034;BME280;63481;52.588;22.472;2023-07-29T00:22:25;99359.64;;;17.24;100.00
34034;BME280;63481;52.588;22.472;2023-07-29T00:22:57;99362.08;;;17.22;100.00
34034;BME280;63481;52.588;22.472;2023-07-29T00:23:30;99362.55;;;17.24;100.00
34034;BME280;63481;52.588;22.472;2023-07-29T00:24:01;99363.95;;;17.22;100.00
34034;BME280;63481;52.588;22.472;2023-07-29T00:24:33;99363.90;;;17.20;100.00
34034;BME280;63481;52.588;22.472;2023-07-29T00:25:05;99363.25;;;17.16;100.00
34034;BME280;63481;52.588;22.472;2023-07-29T00:25:37;99362.98;;;17.12;100.00
34034;BME280;63481;52.588;22.472;2023-07-29T00:26:09;99362.29;;;17.16;100.00
34034;BME280;63481;52.588;22.472;2023-07-29T14:41:27;99458.55;;;25.45;39.81
34034;BME280;63481;52.588;22.472;2023-07-29T14:42:21;99463.72;;;25.37;40.97
34034;BME280;63481;52.588;22.472;2023-07-29T14:42:54;99459.09;;;25.33;40.43
34034;BME280;63481;52.588;22.472;2023-07-29T14:43:26;99460.58;;;25.34;40.59
34034;BME280;63481;52.588;22.472;2023-07-29T14:43:57;99457.10;;;25.37;41.13
34034;BME280;63481;52.588;22.472;2023-07-29T14:44:29;99458.75;;;25.44;42.32
34034;BME280;63481;52.588;22.472;2023-07-29T14:45:01;99458.34;;;25.52;41.45
34034;BME280;63481;52.588;22.472;2023-07-29T14:45:33;99458.32;;;25.62;42.56
34034;BME280;63481;52.588;22.472;2023-07-29T14:46:05;99455.98;;;25.73;41.61
34034;BME280;63481;52.588;22.472;2023-07-29T14:46:37;99458.15;;;25.80;41.17
34034;BME280;63481;52.588;22.472;2023-07-29T14:47:09;99460.77;;;25.83;39.44
34034;BME280;63481;52.588;22.472;2023-07-29T14:47:41;99457.45;;;25.84;39.44
34034;BME280;63481;52.588;22.472;2023-07-29T14:48:13;99458.42;;;25.83;39.97
34034;BME280;63481;52.588;22.472;2023-07-29T14:48:45;99460.17;;;25.87;41.37
34034;BME280;63481;52.588;22.472;2023-07-29T14:49:18;99459.89;;;25.93;41.75
34034;BME280;63481;52.588;22.472;2023-07-29T14:49:50;99458.10;;;25.95;41.19
34034;BME280;63481;52.588;22.472;2023-07-29T14:50:22;99459.17;;;25.97;41.26
34034;BME280;63481;52.588;22.472;2023-07-29T14:50:54;99458.50;;;25.96;41.27
34034;BME280;63481;52.588;22.472;2023-07-29T14:51:26;99458.92;;;25.98;40.89
34034;BME280;63481;52.588;22.472;2023-07-29T14:52:03;99461.24;;;26.05;41.39
34034;BME280;63481;52.588;22.472;2023-07-29T14:52:35;99455.38;;;26.03;39.79
34034;BME280;63481;52.588;22.472;2023-07-29T14:53:07;99458.09;;;25.98;38.93
34034;BME280;63481;52.588;22.472;2023-07-29T14:53:40;99456.83;;;26.00;40.31
34034;BME280;63481;52.588;22.472;2023-07-29T14:54:12;99453.80;;;26.02;38.43
34034;BME280;63481;52.588;22.472;2023-07-29T14:54:44;99456.46;;;26.03;38.03
34034;BME280;63481;52.588;22.472;2023-07-29T14:55:16;99456.50;;;25.91;37.76
34034;BME280;63481;52.588;22.472;2023-07-29T14:55:48;99456.66;;;25.83;38.39
34034;BME280;63481;52.588;22.472;2023-07-29T14:56:20;99457.79;;;25.82;38.53
34034;BME280;63481;52.588;22.472;2023-07-29T14:56:52;99456.00;;;25.86;39.16
34034;BME280;63481;52.588;22.472;2023-07-29T14:57:26;99456.21;;;25.89;39.19
34034;BME280;63481;52.588;22.472;2023-07-29T14:57:58;99459.13;;;25.95;40.00
34034;BME280;63481;52.588;22.472;2023-07-29T14:58:30;99455.91;;;26.03;40.87
34034;BME280;63481;52.588;22.472;2023-07-29T14:59:02;99460.46;;;26.14;41.02
34034;BME280;63481;52.588;22.472;2023-07-29T14:59:34;99458.00;;;26.20;40.95
34034;BME280;63481;52.588;22.472;2023-07-29T15:00:07;99456.88;;;26.24;41.32
34034;BME280;63481;52.588;22.472;2023-07-29T15:00:40;99453.98;;;26.27;41.25
34034;BME280;63481;52.588;22.472;2023-07-29T15:01:12;99458.38;;;26.30;40.71
34034;BME280;63481;52.588;22.472;2023-07-29T15:01:44;99455.61;;;26.30;40.08
34034;BME280;63481;52.588;22.472;2023-07-29T15:02:15;99457.95;;;26.27;39.90
34034;BME280;63481;52.588;22.472;2023-07-29T15:02:47;99455.98;;;26.25;40.40
34034;BME280;63481;52.588;22.472;2023-07-29T15:03:19;99453.84;;;26.23;40.39
34034;BME280;63481;52.588;22.472;2023-07-29T15:03:51;99454.30;;;26.27;40.28
34034;BME280;63481;52.588;22.472;2023-07-29T15:04:24;99455.48;;;26.26;40.66
34034;BME280;63481;52.588;22.472;2023-07-29T15:04:56;99456.29;;;26.21;40.94
34034;BME280;63481;52.588;22.472;2023-07-29T15:05:28;99455.39;;;26.22;40.38
34034;BME280;63481;52.588;22.472;2023-07-29T15:05:59;99457.34;;;26.22;39.82
34034;BME280;63481;52.588;22.472;2023-07-29T15:06:32;99452.52;;;26.22;39.94
34034;BME280;63481;52.588;22.472;2023-07-29T15:07:04;99454.73;;;26.17;40.15
34034;BME280;63481;52.588;22.472;2023-07-29T15:07:37;99455.66;;;26.15;40.39
34034;BME280;63481;52.588;22.472;2023-07-29T15:08:09;99454.26;;;26.15;40.31
34034;BME280;63481;52.588;22.472;2023-07-29T15:08:41;99451.80;;;26.11;40.21
34034;BME280;63481;52.588;22.472;2023-07-29T15:09:13;99454.55;;;26.08;40.36
34034;BME280;63481;52.588;22.472;2023-07-29T15:09:44;99456.01;;;26.03;40.66
34034;BME280;63481;52.588;22.472;2023-07-29T15:10:17;99457.14;;;26.00;40.95
34034;BME280;63481;52.588;22.472;2023-07-29T15:10:59;99459.73;;;25.98;40.91
34034;BME280;63481;52.588;22.472;2023-07-29T15:11:31;99459.52;;;25.95;40.95
34034;BME280;63481;52.588;22.472;2023-07-29T15:12:05;99461.27;;;25.98;41.18
34034;BME280;63481;52.588;22.472;2023-07-29T15:12:37;99461.40;;;25.97;41.10
34034;BME280;63481;52.588;22.472;2023-07-29T15:13:08;99462.05;;;25.99;40.89
34034;BME280;63481;52.588;22.472;2023-07-29T15:13:40;99455.00;;;25.99;41.13
34034;BME280;63481;52.588;22.472;2023-07-29T15:14:12;99451.97;;;26.00;41.22
34034;BME280;63481;52.588;22.472;2023-07-29T15:14:44;99456.10;;;26.03;41.32
34034;BME280;63481;52.588;22.472;2023-07-29T15:15:16;99454.73;;;26.10;41.51
34034;BME280;63481;52.588;22.472;2023-07-29T15:15:48;99451.61;;;26.10;41.20
34034;BME280;63481;52.588;22.472;2023-07-29T15:16:23;99455.71;;;26.05;41.09
34034;BME280;63481;52.588;22.472;2023-07-29T15:16:56;99453.70;;;26.04;40.95
34034;BME280;63481;52.588;22.472;2023-07-29T15:17:27;99452.52;;;26.08;40.16
34034;BME280;63481;52.588;22.472;2023-07-29T15:17:59;99456.56;;;26.09;40.03
34034;BME280;63481;52.588;22.472;2023-07-29T15:18:31;99453.61;;;26.15;40.85
34034;BME280;63481;52.588;22.472;2023-07-29T15:19:05;99453.03;;;26.17;41.66
34034;BME280;63481;52.588;22.472;2023-07-29T15:19:36;99454.63;;;26.20;41.75
34034;BME280;63481;52.588;22.472;2023-07-29T15:20:09;99455.98;;;26.21;40.69
34034;BME280;63481;52.588;22.472;2023-07-29T15:20:41;99456.96;;;26.14;40.77
34034;BME280;63481;52.588;22.472;2023-07-29T15:21:13;99458.05;;;26.07;40.39
34034;BME280;63481;52.588;22.472;2023-07-29T15:21:44;99455.98;;;26.02;40.33
34034;BME280;63481;52.588;22.472;2023-07-29T15:22:17;99458.52;;;25.98;40.61
34034;BME280;63481;52.588;22.472;2023-07-29T15:22:49;99460.19;;;26.02;40.36
34034;BME280;63481;52.588;22.472;2023-07-29T15:23:20;99460.36;;;26.00;40.12
34034;BME280;63481;52.588;22.472;2023-07-29T15:23:52;99462.55;;;25.99;39.99
34034;BME280;63481;52.588;22.472;2023-07-29T15:24:24;99460.70;;;25.97;40.25
34034;BME280;63481;52.588;22.472;2023-07-29T15:24:56;99457.89;;;25.99;40.44
34034;BME280;63481;52.588;22.472;2023-07-29T15:25:28;99458.15;;;26.00;40.46
34034;BME280;63481;52.588;22.472;2023-07-29T15:26:00;99454.95;;;26.04;41.02
34034;BME280;63481;52.588;22.472;2023-07-29T15:26:32;99456.45;;;26.04;41.36
34034;BME280;63481;52.588;22.472;2023-07-29T15:27:04;99455.48;;;26.06;41.21
34034;BME280;63481;52.588;22.472;2023-07-29T15:27:37;99457.70;;;26.07;40.81
34034;BME280;63481;52.588;22.472;2023-07-29T15:28:09;99456.30;;;26.09;40.41
34034;BME280;63481;52.588;22.472;2023-07-29T15:28:41;99454.90;;;26.15;40.40
34034;BME280;63481;52.588;22.472;2023-07-29T15:29:12;99455.17;;;26.17;39.65
34034;BME280;63481;52.588;22.472;2023-07-29T15:29:44;99458.52;;;26.20;39.67
34034;BME280;63481;52.588;22.472;2023-07-29T15:30:16;99453.02;;;26.21;40.19
34034;BME280;63481;52.588;22.472;2023-07-29T15:30:48;99452.02;;;26.18;40.44
34034;BME280;63481;52.588;22.472;2023-07-29T15:31:20;99456.89;;;26.18;40.70
34034;BME280;63481;52.588;22.472;2023-07-29T15:31:52;99454.71;;;26.12;41.17
34034;BME280;63481;52.588;22.472;2023-07-29T15:32:24;99454.11;;;26.04;41.85
34034;BME280;63481;52.588;22.472;2023-07-29T15:32:56;99456.09;;;25.98;41.48
34034;BME280;63481;52.588;22.472;2023-07-29T15:33:28;99453.39;;;26.00;40.73
34034;BME280;63481;52.588;22.472;2023-07-29T15:34:00;99450.39;;;26.01;40.50
34034;BME280;63481;52.588;22.472;2023-07-29T15:34:32;99455.35;;;25.97;41.22
34034;BME280;63481;52.588;22.472;2023-07-29T15:35:04;99453.00;;;25.89;41.77
34034;BME280;63481;52.588;22.472;2023-07-29T15:35:39;99452.50;;;25.86;41.50
34034;BME280;63481;52.588;22.472;2023-07-29T15:36:11;99452.17;;;25.77;41.28
34034;BME280;63481;52.588;22.472;2023-07-29T15:36:42;99448.36;;;25.72;41.31
34034;BME280;63481;52.588;22.472;2023-07-29T15:37:15;99450.74;;;25.69;41.78
34034;BME280;63481;52.588;22.472;2023-07-29T15:37:47;99450.63;;;25.68;41.50
34034;BME280;63481;52.588;22.472;2023-07-29T15:38:19;99449.66;;;25.62;40.56
34034;BME280;63481;52.588;22.472;2023-07-29T15:38:51;99449.21;;;25.65;40.56
34034;BME280;63481;52.588;22.472;2023-07-29T15:39:23;99449.37;;;25.68;40.92
34034;BME280;63481;52.588;22.472;2023-07-29T15:39:54;99450.83;;;25.73;40.77
34034;BME280;63481;52.588;22.472;2023-07-29T15:40:26;99448.98;;;25.81;40.75
34034;BME280;63481;52.588;22.472;2023-07-29T15:40:59;99450.08;;;25.81;41.09
34034;BME280;63481;52.588;22.472;2023-07-29T15:41:34;99449.17;;;25.80;40.69
34034;BME280;63481;52.588;22.472;2023-07-29T15:42:06;99448.73;;;25.79;40.91
34034;BME280;63481;52.588;22.472;2023-07-29T15:42:38;99451.36;;;25.78;41.18
34034;BME280;63481;52.588;22.472;2023-07-29T15:43:10;99452.19;;;25.79;41.45
34034;BME280;63481;52.588;22.472;2023-07-29T15:43:42;99453.05;;;25.79;41.62
34034;BME280;63481;52.588;22.472;2023-07-29T15:44:14;99451.44;;;25.78;41.80
34034;BME280;63481;52.588;22.472;2023-07-29T15:44:45;99452.48;;;25.77;41.55
34034;BME280;63481;52.588;22.472;2023-07-29T15:45:17;99447.66;;;25.79;40.05
34034;BME280;63481;52.588;22.472;2023-07-29T15:45:49;99442.96;;;25.72;39.55
34034;BME280;63481;52.588;22.472;2023-07-29T15:46:21;99446.66;;;25.56;40.55
34034;BME280;63481;52.588;22.472;2023-07-29T15:46:53;99443.02;;;25.59;41.10
34034;BME280;63481;52.588;22.472;2023-07-29T15:47:27;99442.98;;;25.57;41.52
34034;BME280;63481;52.588;22.472;2023-07-29T15:47:58;99445.89;;;25.49;40.71
34034;BME280;63481;52.588;22.472;2023-07-29T15:48:30;99445.23;;;25.44;40.86
34034;BME280;63481;52.588;22.472;2023-07-29T15:49:03;99443.94;;;25.39;40.43
34034;BME280;63481;52.588;22.472;2023-07-29T15:49:35;99443.58;;;25.31;40.24
34034;BME280;63481;52.588;22.472;2023-07-29T15:50:07;99446.73;;;25.25;40.23
34034;BME280;63481;52.588;22.472;2023-07-29T15:50:39;99447.27;;;25.21;39.93
34034;BME280;63481;52.588;22.472;2023-07-29T15:51:11;99449.08;;;25.11;40.39
34034;BME280;63481;52.588;22.472;2023-07-29T15:51:43;99447.08;;;25.08;40.76
34034;BME280;63481;52.588;22.472;2023-07-29T15:52:15;99450.14;;;25.04;40.98
34034;BME280;63481;52.588;22.472;2023-07-29T15:52:47;99448.23;;;25.03;41.01
34034;BME280;63481;52.588;22.472;2023-07-29T15:53:18;99450.23;;;25.05;41.61
34034;BME280;63481;52.588;22.472;2023-07-29T15:53:50;99449.56;;;25.03;42.64
34034;BME280;63481;52.588;22.472;2023-07-29T15:54:23;99448.94;;;25.03;42.93
34034;BME280;63481;52.588;22.472;2023-07-29T15:54:54;99449.28;;;25.04;42.83
34034;BME280;63481;52.588;22.472;2023-07-29T15:55:26;99452.14;;;25.05;42.71
34034;BME280;63481;52.588;22.472;2023-07-29T15:55:58;99449.59;;;25.04;42.75
34034;BME280;63481;52.588;22.472;2023-07-29T15:56:30;99451.56;;;25.08;43.01
34034;BME280;63481;52.588;22.472;2023-07-29T15:57:02;99452.91;;;25.11;42.98
34034;BME280;63481;52.588;22.472;2023-07-29T15:57:34;99452.24;;;25.15;43.79
34034;BME280;63481;52.588;22.472;2023-07-29T15:58:06;99451.60;;;25.18;43.93
34034;BME280;63481;52.588;22.472;2023-07-29T15:58:38;99450.20;;;25.22;43.79
34034;BME280;63481;52.588;22.472;2023-07-29T15:59:10;99454.10;;;25.22;43.79
34034;BME280;63481;52.588;22.472;2023-07-29T15:59:42;99452.59;;;25.25;43.74
34034;BME280;63481;52.588;22.472;2023-07-29T16:00:14;99452.58;;;25.32;42.38
34034;BME280;63481;52.588;22.472;2023-07-29T16:00:46;99447.56;;;25.31;41.98
34034;BME280;63481;52.588;22.472;2023-07-29T16:01:18;99446.73;;;25.32;41.96
34034;BME280;63481;52.588;22.472;2023-07-29T16:01:50;99447.73;;;25.31;42.10
34034;BME280;63481;52.588;22.472;2023-07-29T16:02:22;99449.08;;;25.34;42.81
34034;BME280;63481;52.588;22.472;2023-07-29T16:02:54;99452.09;;;25.40;42.59
34034;BME280;63481;52.588;22.472;2023-07-29T16:03:26;99448.13;;;25.44;42.36
34034;BME280;63481;52.588;22.472;2023-07-29T16:03:58;99447.83;;;25.47;42.31
34034;BME280;63481;52.588;22.472;2023-07-29T16:04:30;99451.62;;;25.52;41.85
34034;BME280;63481;52.588;22.472;2023-07-29T16:05:02;99451.38;;;25.50;42.12
34034;BME280;63481;52.588;22.472;2023-07-29T16:05:34;99452.25;;;25.45;43.40
34034;BME280;63481;52.588;22.472;2023-07-29T16:06:07;99450.15;;;25.44;43.73
34034;BME280;63481;52.588;22.472;2023-07-29T16:06:38;99447.46;;;25.39;43.07
34034;BME280;63481;52.588;22.472;2023-07-29T16:07:10;99447.85;;;25.39;43.02
34034;BME280;63481;52.588;22.472;2023-07-29T16:07:42;99446.73;;;25.37;43.26
34034;BME280;63481;52.588;22.472;2023-07-29T16:08:14;99447.27;;;25.37;44.00
34034;BME280;63481;52.588;22.472;2023-07-29T16:08:46;99448.30;;;25.35;44.60
34034;BME280;63481;52.588;22.472;2023-07-29T16:09:20;99446.92;;;25.38;44.82
34034;BME280;63481;52.588;22.472;2023-07-29T16:09:53;99447.27;;;25.40;44.20
34034;BME280;63481;52.588;22.472;2023-07-29T16:10:24;99450.09;;;25.44;43.20
34034;BME280;63481;52.588;22.472;2023-07-29T16:10:56;99447.88;;;25.42;43.30
34034;BME280;63481;52.588;22.472;2023-07-29T16:11:28;99444.67;;;25.41;43.25
34034;BME280;63481;52.588;22.472;2023-07-29T16:12:00;99446.27;;;25.41;43.27
34034;BME280;63481;52.588;22.472;2023-07-29T16:12:33;99443.07;;;25.37;42.91
34034;BME280;63481;52.588;22.472;2023-07-29T16:13:07;99443.98;;;25.38;43.43
34034;BME280;63481;52.588;22.472;2023-07-29T16:13:39;99440.90;;;25.41;44.04
34034;BME280;63481;52.588;22.472;2023-07-29T16:14:11;99442.06;;;25.44;43.53
34034;BME280;63481;52.588;22.472;2023-07-29T16:14:43;99443.73;;;25.43;43.88
34034;BME280;63481;52.588;22.472;2023-07-29T16:15:15;99443.09;;;25.44;43.88
34034;BME280;63481;52.588;22.472;2023-07-29T16:15:46;99442.50;;;25.44;44.36
34034;BME280;63481;52.588;22.472;2023-07-29T16:16:19;99442.06;;;25.41;44.36
34034;BME280;63481;52.588;22.472;2023-07-29T16:16:50;99445.21;;;25.38;44.40
34034;BME280;63481;52.588;22.472;2023-07-29T16:17:22;99442.38;;;25.33;43.88
34034;BME280;63481;52.588;22.472;2023-07-29T16:17:54;99445.30;;;25.27;43.35
34034;BME280;63481;52.588;22.472;2023-07-29T16:18:26;99446.48;;;25.21;44.08
34034;BME280;63481;52.588;22.472;2023-07-29T16:18:58;99445.75;;;25.22;43.11
34034;BME280;63481;52.588;22.472;2023-07-29T16:19:30;99445.73;;;25.16;42.82
34034;BME280;63481;52.588;22.472;2023-07-29T16:20:03;99445.20;;;25.08;43.28
34034;BME280;63481;52.588;22.472;2023-07-29T16:20:35;99445.50;;;25.03;43.44
34034;BME280;63481;52.588;22.472;2023-07-29T16:21:07;99443.73;;;25.07;43.41
34034;BME280;63481;52.588;22.472;2023-07-29T16:21:39;99447.02;;;25.11;43.36
34034;BME280;63481;52.588;22.472;2023-07-29T16:22:11;99445.00;;;25.03;43.76
34034;BME280;63481;52.588;22.472;2023-07-29T16:22:42;99446.27;;;24.96;43.83
34034;BME280;63481;52.588;22.472;2023-07-29T16:23:14;99441.80;;;24.92;43.93
34034;BME280;63481;52.588;22.472;2023-07-29T16:23:46;99445.96;;;24.91;44.56
34034;BME280;63481;52.588;22.472;2023-07-29T16:24:24;99446.53;;;24.90;45.46
34034;BME280;63481;52.588;22.472;2023-07-29T16:24:55;99445.04;;;24.88;45.77
34034;BME280;63481;52.588;22.472;2023-07-29T16:25:28;99444.98;;;24.86;46.07
34034;BME280;63481;52.588;22.472;2023-07-29T16:26:00;99443.02;;;24.84;45.87
34034;BME280;63481;52.588;22.472;2023-07-29T16:26:32;99442.24;;;24.82;45.52
34034;BME280;63481;52.588;22.472;2023-07-29T16:27:04;99441.85;;;24.81;45.62
34034;BME280;63481;52.588;22.472;2023-07-29T16:27:36;99443.92;;;24.79;45.56
34034;BME280;63481;52.588;22.472;2023-07-29T16:28:08;99440.49;;;24.74;45.96
34034;BME280;63481;52.588;22.472;2023-07-29T16:28:40;99444.25;;;24.71;46.32
34034;BME280;63481;52.588;22.472;2023-07-29T16:29:12;99444.75;;;24.67;46.49
34034;BME280;63481;52.588;22.472;2023-07-29T16:29:44;99442.61;;;24.64;46.76
34034;BME280;63481;52.588;22.472;2023-07-29T16:30:16;99439.77;;;24.62;46.85
34034;BME280;63481;52.588;22.472;2023-07-29T16:30:48;99442.67;;;24.64;46.71
34034;BME280;63481;52.588;22.472;2023-07-29T16:31:20;99443.09;;;24.65;46.89
34034;BME280;63481;52.588;22.472;2023-07-29T16:31:53;99442.86;;;24.61;46.97
34034;BME280;63481;52.588;22.472;2023-07-29T16:32:25;99441.55;;;24.63;46.84
34034;BME280;63481;52.588;22.472;2023-07-29T16:32:57;99439.61;;;24.62;46.03
34034;BME280;63481;52.588;22.472;2023-07-29T16:33:29;99444.23;;;24.61;46.50
34034;BME280;63481;52.588;22.472;2023-07-29T16:34:00;99440.64;;;24.57;46.40
34034;BME280;63481;52.588;22.472;2023-07-29T16:34:32;99443.70;;;24.53;46.44
34034;BME280;63481;52.588;22.472;2023-07-29T16:35:04;99443.80;;;24.50;46.94
34034;BME280;63481;52.588;22.472;2023-07-29T16:35:37;99443.34;;;24.46;46.69
34034;BME280;63481;52.588;22.472;2023-07-29T16:36:09;99443.97;;;24.44;46.72
34034;BME280;63481;52.588;22.472;2023-07-29T16:36:41;99444.05;;;24.50;47.30
34034;BME280;63481;52.588;22.472;2023-07-29T16:37:12;99447.33;;;24.52;47.21
34034;BME280;63481;52.588;22.472;2023-07-29T16:37:44;99445.68;;;24.52;47.42
34034;BME280;63481;52.588;22.472;2023-07-29T16:38:16;99443.59;;;24.47;46.86
34034;BME280;63481;52.588;22.472;2023-07-29T16:38:48;99445.80;;;24.42;47.13
34034;BME280;63481;52.588;22.472;2023-07-29T16:39:20;99444.85;;;24.40;47.11
34034;BME280;63481;52.588;22.472;2023-07-29T16:39:52;99443.27;;;24.42;46.23
34034;BME280;63481;52.588;22.472;2023-07-29T16:40:24;99443.08;;;24.50;45.14
34034;BME280;63481;52.588;22.472;2023-07-29T16:40:56;99440.82;;;24.55;45.35
34034;BME280;63481;52.588;22.472;2023-07-29T16:41:28;99442.50;;;24.57;45.49
34034;BME280;63481;52.588;22.472;2023-07-29T16:42:00;99443.06;;;24.55;46.07
34034;BME280;63481;52.588;22.472;2023-07-29T16:42:32;99442.80;;;24.52;46.56
34034;BME280;63481;52.588;22.472;2023-07-29T16:43:04;99440.42;;;24.52;46.45
34034;BME280;63481;52.588;22.472;2023-07-29T16:43:35;99438.98;;;24.49;46.97
34034;BME280;63481;52.588;22.472;2023-07-29T16:44:07;99440.35;;;24.48;47.06
34034;BME280;63481;52.588;22.472;2023-07-29T16:44:39;99441.39;;;24.50;46.28
34034;BME280;63481;52.588;22.472;2023-07-29T16:45:12;99437.42;;;24.49;46.63
34034;BME280;63481;52.588;22.472;2023-07-29T16:45:44;99438.53;;;24.47;47.09
34034;BME280;63481;52.588;22.472;2023-07-29T16:46:15;99441.55;;;24.45;47.50
34034;BME280;63481;52.588;22.472;2023-07-29T16:46:47;99440.73;;;24.43;47.96
34034;BME280;63481;52.588;22.472;2023-07-29T16:47:19;99439.30;;;24.41;48.26
34034;BME280;63481;52.588;22.472;2023-07-29T16:47:51;99438.25;;;24.40;48.74
34034;BME280;63481;52.588;22.472;2023-07-29T16:48:23;99441.33;;;24.40;49.02
34034;BME280;63481;52.588;22.472;2023-07-29T16:48:55;99435.55;;;24.39;49.30
34034;BME280;63481;52.588;22.472;2023-07-29T16:49:27;99436.30;;;24.40;48.36
34034;BME280;63481;52.588;22.472;2023-07-29T16:49:59;99435.80;;;24.38;48.06
34034;BME280;63481;52.588;22.472;2023-07-29T16:50:31;99434.70;;;24.41;48.16
34034;BME280;63481;52.588;22.472;2023-07-29T16:51:03;99433.04;;;24.44;48.22
34034;BME280;63481;52.588;22.472;2023-07-29T16:51:35;99431.53;;;24.43;48.51
34034;BME280;63481;52.588;22.472;2023-07-29T16:52:07;99432.61;;;24.46;48.31
34034;BME280;63481;52.588;22.472;2023-07-29T16:52:39;99430.48;;;24.47;47.31
34034;BME280;63481;52.588;22.472;2023-07-29T16:53:11;99431.23;;;24.48;47.79
34034;BME280;63481;52.588;22.472;2023-07-29T16:53:43;99430.99;;;24.48;46.95
34034;BME280;63481;52.588;22.472;2023-07-29T16:54:15;99424.48;;;24.50;46.52
34034;BME280;63481;52.588;22.472;2023-07-29T16:54:49;99426.56;;;24.50;47.16
34034;BME280;63481;52.588;22.472;2023-07-29T16:55:21;99430.18;;;24.47;47.94
34034;BME280;63481;52.588;22.472;2023-07-29T16:55:53;99431.86;;;24.48;47.45
34034;BME280;63481;52.588;22.472;2023-07-29T16:56:24;99425.73;;;24.56;46.97
34034;BME280;63481;52.588;22.472;2023-07-29T16:56:56;99425.66;;;24.62;46.22
34034;BME280;63481;52.588;22.472;2023-07-29T16:57:28;99419.78;;;24.63;46.62
34034;BME280;63481;52.588;22.472;2023-07-29T16:58:00;99419.36;;;24.56;48.07
34034;BME280;63481;52.588;22.472;2023-07-29T16:58:32;99420.27;;;24.52;47.87
34034;BME280;63481;52.588;22.472;2023-07-29T16:59:04;99424.46;;;24.51;48.01
34034;BME280;63481;52.588;22.472;2023-07-29T16:59:36;99419.60;;;24.49;47.82
34034;BME280;63481;52.588;22.472;2023-07-29T17:00:08;99419.06;;;24.51;47.17
34034;BME280;63481;52.588;22.472;2023-07-29T17:00:40;99416.59;;;24.50;47.74
34034;BME280;63481;52.588;22.472;2023-07-29T17:01:12;99416.50;;;24.48;47.76
34034;BME280;63481;52.588;22.472;2023-07-29T17:01:44;99419.05;;;24.46;47.24
34034;BME280;63481;52.588;22.472;2023-07-29T17:02:15;99417.83;;;24.45;47.20
34034;BME280;63481;52.588;22.472;2023-07-29T17:02:47;99415.66;;;24.48;47.90